sensor_id;sensor_type;location;lat;lon;timestamp;temperature;humidity
22212;DHT22;11275;52.488;13.462;2022-08-25T00:01:42;22.20;99.90
22212;DHT22;11275;52.488;13.462;2022-08-25T00:04:10;22.10;99.90
22212;DHT22;11275;52.488;13.462;2022-08-25T00:06:36;22.10;99.90
22212;DHT22;11275;52.488;13.462;2022-08-25T00:09:03;22.20;99.90
22212;DHT22;11275;52.488;13.462;2022-08-25T00:11:31;22.10;99.90
22212;DHT22;11275;52.488;13.462;2022-08-25T00:14:00;22.00;99.90
22212;DHT22;11275;52.488;13.462;2022-08-25T00:16:27;22.00;99.90
22212;DHT22;11275;52.488;13.462;2022-08-25T00:18:56;22.00;99.90
22212;DHT22;11275;52.488;13.462;2022-08-25T00:21:23;22.00;99.90
22212;DHT22;11275;52.488;13.462;2022-08-25T00:23:50;22.00;99.90
22212;DHT22;11275;52.488;13.462;2022-08-25T00:26:16;21.90;99.90
22212;DHT22;11275;52.488;13.462;2022-08-25T00:28:43;21.90;99.90
22212;DHT22;11275;52.488;13.462;2022-08-25T00:31:14;21.70;99.90
22212;DHT22;11275;52.488;13.462;2022-08-25T00:33:41;21.70;99.90
22212;DHT22;11275;52.488;13.462;2022-08-25T00:36:08;21.60;99.90
22212;DHT22;11275;52.488;13.462;2022-08-25T00:38:40;21.60;99.90
22212;DHT22;11275;52.488;13.462;2022-08-25T00:41:08;21.60;99.90
22212;DHT22;11275;52.488;13.462;2022-08-25T00:43:58;21.70;99.90
22212;DHT22;11275;52.488;13.462;2022-08-25T00:46:28;21.60;99.90
22212;DHT22;11275;52.488;13.462;2022-08-25T00:49:01;21.70;99.90
22212;DHT22;11275;52.488;13.462;2022-08-25T00:51:39;21.60;99.90
22212;DHT22;11275;52.488;13.462;2022-08-25T00:54:09;21.60;99.90
22212;DHT22;11275;52.488;13.462;2022-08-25T00:56:37;21.60;99.90
22212;DHT22;11275;52.488;13.462;2022-08-25T00:59:04;21.60;99.90
22212;DHT22;11275;52.488;13.462;2022-08-25T01:01:29;21.60;99.90
22212;DHT22;11275;52.488;13.462;2022-08-25T01:03:55;21.60;99.90
22212;DHT22;11275;52.488;13.462;2022-08-25T01:06:21;21.50;99.90
22212;DHT22;11275;52.488;13.462;2022-08-25T01:08:48;21.50;99.90
22212;DHT22;11275;52.488;13.462;2022-08-25T01:11:15;21.50;99.90
22212;DHT22;11275;52.488;13.462;2022-08-25T01:13:47;21.40;99.90
22212;DHT22;11275;52.488;13.462;2022-08-25T01:16:14;21.30;99.90
22212;DHT22;11275;52.488;13.462;2022-08-25T01:18:44;21.30;99.90
22212;DHT22;11275;52.488;13.462;2022-08-25T01:21:10;21.40;99.90
22212;DHT22;11275;52.488;13.462;2022-08-25T01:23:36;21.30;99.90
22212;DHT22;11275;52.488;13.462;2022-08-25T01:28:32;21.40;99.90
22212;DHT22;11275;52.488;13.462;2022-08-25T01:30:58;21.40;99.90
22212;DHT22;11275;52.488;13.462;2022-08-25T01:33:23;21.30;99.90
22212;DHT22;11275;52.488;13.462;2022-08-25T01:35:49;21.30;99.90
22212;DHT22;11275;52.488;13.462;2022-08-25T01:38:15;21.30;99.90
22212;DHT22;11275;52.488;13.462;2022-08-25T01:40:41;21.30;99.90
22212;DHT22;11275;52.488;13.462;2022-08-25T01:45:40;21.30;99.90
22212;DHT22;11275;52.488;13.462;2022-08-25T01:48:06;21.20;99.90
22212;DHT22;11275;52.488;13.462;2022-08-25T01:50:33;21.10;99.90
22212;DHT22;11275;52.488;13.462;2022-08-25T01:53:12;21.10;99.90
22212;DHT22;11275;52.488;13.462;2022-08-25T01:55:41;21.10;99.90
22212;DHT22;11275;52.488;13.462;2022-08-25T01:58:25;21.20;99.90
22212;DHT22;11275;52.488;13.462;2022-08-25T02:00:53;21.20;99.90
22212;DHT22;11275;52.488;13.462;2022-08-25T02:03:21;21.20;99.90
22212;DHT22;11275;52.488;13.462;2022-08-25T02:05:47;21.20;99.90
22212;DHT22;11275;52.488;13.462;2022-08-25T02:08:12;21.10;99.90
22212;DHT22;11275;52.488;13.462;2022-08-25T02:10:39;21.10;99.90
22212;DHT22;11275;52.488;13.462;2022-08-25T02:13:06;21.10;99.90
22212;DHT22;11275;52.488;13.462;2022-08-25T02:15:31;21.10;99.90
22212;DHT22;11275;52.488;13.462;2022-08-25T02:17:58;21.00;99.90
22212;DHT22;11275;52.488;13.462;2022-08-25T02:20:24;21.00;99.90
22212;DHT22;11275;52.488;13.462;2022-08-25T02:22:51;21.00;99.90
22212;DHT22;11275;52.488;13.462;2022-08-25T02:25:18;21.00;99.90
22212;DHT22;11275;52.488;13.462;2022-08-25T02:27:44;21.00;99.90
22212;DHT22;11275;52.488;13.462;2022-08-25T02:30:11;20.90;99.90
22212;DHT22;11275;52.488;13.462;2022-08-25T02:32:38;20.90;99.90
22212;DHT22;11275;52.488;13.462;2022-08-25T02:35:05;20.80;99.90
22212;DHT22;11275;52.488;13.462;2022-08-25T02:37:31;20.80;99.90
22212;DHT22;11275;52.488;13.462;2022-08-25T02:39:57;20.70;99.90
22212;DHT22;11275;52.488;13.462;2022-08-25T02:42:23;20.80;99.90
22212;DHT22;11275;52.488;13.462;2022-08-25T02:44:49;20.80;99.90
22212;DHT22;11275;52.488;13.462;2022-08-25T02:47:15;20.80;99.90
22212;DHT22;11275;52.488;13.462;2022-08-25T02:49:41;20.70;99.90
22212;DHT22;11275;52.488;13.462;2022-08-25T02:52:07;20.70;99.90
22212;DHT22;11275;52.488;13.462;2022-08-25T02:54:33;20.70;99.90
22212;DHT22;11275;52.488;13.462;2022-08-25T02:56:59;20.70;99.90
22212;DHT22;11275;52.488;13.462;2022-08-25T02:59:25;20.70;99.90
22212;DHT22;11275;52.488;13.462;2022-08-25T03:01:51;20.70;99.90
22212;DHT22;11275;52.488;13.462;2022-08-25T03:04:17;20.70;99.90
22212;DHT22;11275;52.488;13.462;2022-08-25T03:06:43;20.70;99.90
22212;DHT22;11275;52.488;13.462;2022-08-25T03:09:09;20.70;99.90
22212;DHT22;11275;52.488;13.462;2022-08-25T03:11:35;20.70;99.90
22212;DHT22;11275;52.488;13.462;2022-08-25T03:14:04;20.60;99.90
22212;DHT22;11275;52.488;13.462;2022-08-25T03:16:30;20.60;99.90
22212;DHT22;11275;52.488;13.462;2022-08-25T03:18:56;20.60;99.90
22212;DHT22;11275;52.488;13.462;2022-08-25T03:21:22;20.60;99.90
22212;DHT22;11275;52.488;13.462;2022-08-25T03:23:48;20.50;99.90
22212;DHT22;11275;52.488;13.462;2022-08-25T03:26:13;20.50;99.90
22212;DHT22;11275;52.488;13.462;2022-08-25T03:28:57;20.40;99.90
22212;DHT22;11275;52.488;13.462;2022-08-25T03:31:24;20.30;99.90
22212;DHT22;11275;52.488;13.462;2022-08-25T03:33:53;20.40;99.90
22212;DHT22;11275;52.488;13.462;2022-08-25T03:36:19;20.40;99.90
22212;DHT22;11275;52.488;13.462;2022-08-25T03:38:44;20.40;99.90
22212;DHT22;11275;52.488;13.462;2022-08-25T03:41:15;20.40;99.90
22212;DHT22;11275;52.488;13.462;2022-08-25T03:43:41;20.50;99.90
22212;DHT22;11275;52.488;13.462;2022-08-25T03:46:08;20.40;99.90
22212;DHT22;11275;52.488;13.462;2022-08-25T03:48:33;20.40;99.90
22212;DHT22;11275;52.488;13.462;2022-08-25T03:50:59;20.40;99.90
22212;DHT22;11275;52.488;13.462;2022-08-25T03:53:24;20.40;99.90
22212;DHT22;11275;52.488;13.462;2022-08-25T03:55:50;20.40;99.90
22212;DHT22;11275;52.488;13.462;2022-08-25T03:58:16;20.40;99.90
22212;DHT22;11275;52.488;13.462;2022-08-25T04:00:42;20.40;99.90
22212;DHT22;11275;52.488;13.462;2022-08-25T04:03:08;20.40;99.90
22212;DHT22;11275;52.488;13.462;2022-08-25T04:05:34;20.40;99.90
22212;DHT22;11275;52.488;13.462;2022-08-25T04:07:59;20.50;99.90
22212;DHT22;11275;52.488;13.462;2022-08-25T04:12:53;20.50;99.90
22212;DHT22;11275;52.488;13.462;2022-08-25T04:15:20;20.60;99.90
22212;DHT22;11275;52.488;13.462;2022-08-25T04:17:45;20.50;99.90
22212;DHT22;11275;52.488;13.462;2022-08-25T04:20:11;20.50;99.90
22212;DHT22;11275;52.488;13.462;2022-08-25T04:22:37;20.30;99.90
22212;DHT22;11275;52.488;13.462;2022-08-25T04:25:04;20.20;99.90
22212;DHT22;11275;52.488;13.462;2022-08-25T04:27:30;20.20;99.90
22212;DHT22;11275;52.488;13.462;2022-08-25T04:29:56;20.10;99.90
22212;DHT22;11275;52.488;13.462;2022-08-25T04:32:22;20.10;99.90
22212;DHT22;11275;52.488;13.462;2022-08-25T04:34:47;20.10;99.90
22212;DHT22;11275;52.488;13.462;2022-08-25T04:37:13;20.10;99.90
22212;DHT22;11275;52.488;13.462;2022-08-25T04:39:39;20.10;99.90
22212;DHT22;11275;52.488;13.462;2022-08-25T04:42:05;20.10;99.90
22212;DHT22;11275;52.488;13.462;2022-08-25T04:44:31;20.20;99.90
22212;DHT22;11275;52.488;13.462;2022-08-25T04:46:57;20.20;99.90
22212;DHT22;11275;52.488;13.462;2022-08-25T04:49:22;20.10;99.90
22212;DHT22;11275;52.488;13.462;2022-08-25T04:51:48;20.20;99.90
22212;DHT22;11275;52.488;13.462;2022-08-25T04:54:15;20.10;99.90
22212;DHT22;11275;52.488;13.462;2022-08-25T04:56:42;20.10;99.90
22212;DHT22;11275;52.488;13.462;2022-08-25T04:59:13;20.10;99.90
22212;DHT22;11275;52.488;13.462;2022-08-25T05:01:40;20.20;99.90
22212;DHT22;11275;52.488;13.462;2022-08-25T05:04:09;20.30;99.90
22212;DHT22;11275;52.488;13.462;2022-08-25T05:06:35;20.40;99.90
22212;DHT22;11275;52.488;13.462;2022-08-25T05:09:02;20.40;99.90
22212;DHT22;11275;52.488;13.462;2022-08-25T05:11:28;20.20;99.90
22212;DHT22;11275;52.488;13.462;2022-08-25T05:13:55;20.20;99.90
22212;DHT22;11275;52.488;13.462;2022-08-25T05:16:22;20.20;99.90
22212;DHT22;11275;52.488;13.462;2022-08-25T05:18:48;20.30;99.90
22212;DHT22;11275;52.488;13.462;2022-08-25T05:21:20;20.40;99.90
22212;DHT22;11275;52.488;13.462;2022-08-25T05:23:46;20.30;99.90
22212;DHT22;11275;52.488;13.462;2022-08-25T05:26:16;20.30;99.90
22212;DHT22;11275;52.488;13.462;2022-08-25T05:28:42;20.40;99.90
22212;DHT22;11275;52.488;13.462;2022-08-25T05:31:10;20.60;99.90
22212;DHT22;11275;52.488;13.462;2022-08-25T05:33:37;20.70;99.90
22212;DHT22;11275;52.488;13.462;2022-08-25T05:36:04;20.70;99.90
22212;DHT22;11275;52.488;13.462;2022-08-25T05:38:30;20.80;99.90
22212;DHT22;11275;52.488;13.462;2022-08-25T05:41:02;20.80;99.90
22212;DHT22;11275;52.488;13.462;2022-08-25T05:43:28;20.80;99.90
22212;DHT22;11275;52.488;13.462;2022-08-25T05:45:55;20.80;99.90
22212;DHT22;11275;52.488;13.462;2022-08-25T05:48:22;20.90;99.90
22212;DHT22;11275;52.488;13.462;2022-08-25T05:50:56;20.90;99.90
22212;DHT22;11275;52.488;13.462;2022-08-25T05:53:23;20.90;99.90
22212;DHT22;11275;52.488;13.462;2022-08-25T05:55:50;21.00;99.90
22212;DHT22;11275;52.488;13.462;2022-08-25T05:58:16;21.10;99.90
22212;DHT22;11275;52.488;13.462;2022-08-25T06:00:42;21.20;99.90
22212;DHT22;11275;52.488;13.462;2022-08-25T06:03:08;21.10;99.90
22212;DHT22;11275;52.488;13.462;2022-08-25T06:05:34;21.10;99.90
22212;DHT22;11275;52.488;13.462;2022-08-25T06:07:59;21.00;99.90
22212;DHT22;11275;52.488;13.462;2022-08-25T06:10:25;21.10;99.90
22212;DHT22;11275;52.488;13.462;2022-08-25T06:12:51;21.00;99.90
22212;DHT22;11275;52.488;13.462;2022-08-25T06:15:20;20.90;99.90
22212;DHT22;11275;52.488;13.462;2022-08-25T06:17:47;21.00;99.90
22212;DHT22;11275;52.488;13.462;2022-08-25T06:20:22;21.00;99.90
22212;DHT22;11275;52.488;13.462;2022-08-25T06:22:48;21.10;99.90
22212;DHT22;11275;52.488;13.462;2022-08-25T06:25:16;21.20;99.90
22212;DHT22;11275;52.488;13.462;2022-08-25T06:27:42;21.20;99.90
22212;DHT22;11275;52.488;13.462;2022-08-25T06:30:12;21.30;99.90
22212;DHT22;11275;52.488;13.462;2022-08-25T06:32:42;21.40;99.90
22212;DHT22;11275;52.488;13.462;2022-08-25T06:35:11;21.40;99.90
22212;DHT22;11275;52.488;13.462;2022-08-25T06:37:37;21.40;99.90
22212;DHT22;11275;52.488;13.462;2022-08-25T06:40:05;21.50;99.90
22212;DHT22;11275;52.488;13.462;2022-08-25T06:42:31;21.50;99.90
22212;DHT22;11275;52.488;13.462;2022-08-25T06:44:57;21.50;99.90
22212;DHT22;11275;52.488;13.462;2022-08-25T06:47:22;21.50;99.90
22212;DHT22;11275;52.488;13.462;2022-08-25T06:49:48;21.60;99.90
22212;DHT22;11275;52.488;13.462;2022-08-25T06:52:14;21.60;99.90
22212;DHT22;11275;52.488;13.462;2022-08-25T06:54:40;21.50;99.90
22212;DHT22;11275;52.488;13.462;2022-08-25T06:57:06;21.50;99.90
22212;DHT22;11275;52.488;13.462;2022-08-25T06:59:35;21.50;99.90
22212;DHT22;11275;52.488;13.462;2022-08-25T07:02:02;21.70;99.90
22212;DHT22;11275;52.488;13.462;2022-08-25T07:04:28;21.80;99.90
22212;DHT22;11275;52.488;13.462;2022-08-25T07:06:54;21.80;99.90
22212;DHT22;11275;52.488;13.462;2022-08-25T07:09:20;21.70;99.90
22212;DHT22;11275;52.488;13.462;2022-08-25T07:11:46;21.50;99.90
22212;DHT22;11275;52.488;13.462;2022-08-25T07:14:13;21.40;99.90
22212;DHT22;11275;52.488;13.462;2022-08-25T07:16:41;21.60;99.90
22212;DHT22;11275;52.488;13.462;2022-08-25T07:19:07;21.80;99.90
22212;DHT22;11275;52.488;13.462;2022-08-25T07:21:35;21.90;99.90
22212;DHT22;11275;52.488;13.462;2022-08-25T07:24:05;22.00;99.90
22212;DHT22;11275;52.488;13.462;2022-08-25T07:26:32;22.00;99.90
22212;DHT22;11275;52.488;13.462;2022-08-25T07:28:59;22.00;99.90
22212;DHT22;11275;52.488;13.462;2022-08-25T07:31:25;22.20;99.90
22212;DHT22;11275;52.488;13.462;2022-08-25T07:33:51;22.20;99.90
22212;DHT22;11275;52.488;13.462;2022-08-25T07:36:35;22.50;99.90
22212;DHT22;11275;52.488;13.462;2022-08-25T07:39:02;22.60;99.90
22212;DHT22;11275;52.488;13.462;2022-08-25T07:41:30;22.80;99.90
22212;DHT22;11275;52.488;13.462;2022-08-25T07:43:56;22.90;99.90
22212;DHT22;11275;52.488;13.462;2022-08-25T07:46:22;22.80;99.90
22212;DHT22;11275;52.488;13.462;2022-08-25T07:48:47;22.70;99.90
22212;DHT22;11275;52.488;13.462;2022-08-25T07:51:13;22.70;99.90
22212;DHT22;11275;52.488;13.462;2022-08-25T07:53:40;22.80;99.90
22212;DHT22;11275;52.488;13.462;2022-08-25T07:56:11;22.80;99.90
22212;DHT22;11275;52.488;13.462;2022-08-25T07:58:39;22.90;99.90
22212;DHT22;11275;52.488;13.462;2022-08-25T08:01:05;22.80;99.90
22212;DHT22;11275;52.488;13.462;2022-08-25T08:03:31;22.80;99.90
22212;DHT22;11275;52.488;13.462;2022-08-25T08:05:59;22.80;99.90
22212;DHT22;11275;52.488;13.462;2022-08-25T08:08:26;22.90;99.90
22212;DHT22;11275;52.488;13.462;2022-08-25T08:10:52;23.00;99.90
22212;DHT22;11275;52.488;13.462;2022-08-25T08:13:17;23.10;99.90
22212;DHT22;11275;52.488;13.462;2022-08-25T08:15:44;23.30;99.90
22212;DHT22;11275;52.488;13.462;2022-08-25T08:18:09;23.40;99.90
22212;DHT22;11275;52.488;13.462;2022-08-25T08:20:35;23.60;99.90
22212;DHT22;11275;52.488;13.462;2022-08-25T08:23:01;23.70;99.90
22212;DHT22;11275;52.488;13.462;2022-08-25T08:25:27;23.70;99.90
22212;DHT22;11275;52.488;13.462;2022-08-25T08:27:53;23.80;99.90
22212;DHT22;11275;52.488;13.462;2022-08-25T08:30:19;23.70;99.90
22212;DHT22;11275;52.488;13.462;2022-08-25T08:32:46;23.60;99.90
22212;DHT22;11275;52.488;13.462;2022-08-25T08:35:12;23.50;99.90
22212;DHT22;11275;52.488;13.462;2022-08-25T08:37:39;23.60;99.90
22212;DHT22;11275;52.488;13.462;2022-08-25T08:40:08;23.80;99.90
22212;DHT22;11275;52.488;13.462;2022-08-25T08:42:51;23.70;99.90
22212;DHT22;11275;52.488;13.462;2022-08-25T08:45:33;23.80;99.90
22212;DHT22;11275;52.488;13.462;2022-08-25T08:48:08;23.70;99.90
22212;DHT22;11275;52.488;13.462;2022-08-25T08:53:38;23.60;99.90
22212;DHT22;11275;52.488;13.462;2022-08-25T08:56:08;23.70;99.90
22212;DHT22;11275;52.488;13.462;2022-08-25T08:58:51;23.80;99.90
22212;DHT22;11275;52.488;13.462;2022-08-25T09:01:25;24.00;99.90
22212;DHT22;11275;52.488;13.462;2022-08-25T09:03:58;24.10;99.90
22212;DHT22;11275;52.488;13.462;2022-08-25T09:06:31;24.30;99.90
22212;DHT22;11275;52.488;13.462;2022-08-25T09:08:59;24.40;99.90
22212;DHT22;11275;52.488;13.462;2022-08-25T09:14:29;24.40;99.90
22212;DHT22;11275;52.488;13.462;2022-08-25T09:18:21;24.50;99.90
22212;DHT22;11275;52.488;13.462;2022-08-25T09:31:21;25.10;99.90
22212;DHT22;11275;52.488;13.462;2022-08-25T09:33:48;25.00;99.90
22212;DHT22;11275;52.488;13.462;2022-08-25T09:36:15;25.00;99.90
22212;DHT22;11275;52.488;13.462;2022-08-25T09:38:40;24.70;99.90
22212;DHT22;11275;52.488;13.462;2022-08-25T09:41:07;24.50;99.90
22212;DHT22;11275;52.488;13.462;2022-08-25T09:43:39;24.50;99.90
22212;DHT22;11275;52.488;13.462;2022-08-25T09:46:23;24.60;99.90
22212;DHT22;11275;52.488;13.462;2022-08-25T09:48:54;24.60;99.90
22212;DHT22;11275;52.488;13.462;2022-08-25T09:51:35;24.60;99.90
22212;DHT22;11275;52.488;13.462;2022-08-25T09:54:05;24.50;99.90
22212;DHT22;11275;52.488;13.462;2022-08-25T09:56:57;24.30;99.90
22212;DHT22;11275;52.488;13.462;2022-08-25T10:04:31;23.90;99.90
22212;DHT22;11275;52.488;13.462;2022-08-25T10:06:58;23.80;99.90
22212;DHT22;11275;52.488;13.462;2022-08-25T10:09:32;23.80;99.90
22212;DHT22;11275;52.488;13.462;2022-08-25T10:12:00;23.90;99.90
22212;DHT22;11275;52.488;13.462;2022-08-25T10:14:33;24.00;99.90
22212;DHT22;11275;52.488;13.462;2022-08-25T10:19:42;24.30;99.90
22212;DHT22;11275;52.488;13.462;2022-08-25T10:22:25;24.40;99.90
22212;DHT22;11275;52.488;13.462;2022-08-25T10:24:58;24.40;99.90
22212;DHT22;11275;52.488;13.462;2022-08-25T10:27:33;24.40;99.90
22212;DHT22;11275;52.488;13.462;2022-08-25T10:38:09;25.00;99.90
22212;DHT22;11275;52.488;13.462;2022-08-25T10:43:52;25.20;99.90
22212;DHT22;11275;52.488;13.462;2022-08-25T10:46:42;25.30;99.90
22212;DHT22;11275;52.488;13.462;2022-08-25T10:49:18;25.50;99.90
22212;DHT22;11275;52.488;13.462;2022-08-25T10:52:04;25.40;99.90
22212;DHT22;11275;52.488;13.462;2022-08-25T10:54:48;25.40;99.90
22212;DHT22;11275;52.488;13.462;2022-08-25T10:57:57;25.30;99.90
22212;DHT22;11275;52.488;13.462;2022-08-25T11:00:31;25.30;99.90
22212;DHT22;11275;52.488;13.462;2022-08-25T11:06:04;25.50;99.90
22212;DHT22;11275;52.488;13.462;2022-08-25T11:08:50;25.60;99.90
22212;DHT22;11275;52.488;13.462;2022-08-25T11:14:08;25.80;99.90
22212;DHT22;11275;52.488;13.462;2022-08-25T11:16:41;26.00;99.90
22212;DHT22;11275;52.488;13.462;2022-08-25T11:19:14;26.10;99.90
22212;DHT22;11275;52.488;13.462;2022-08-25T11:24:41;26.10;99.90
22212;DHT22;11275;52.488;13.462;2022-08-25T11:26:59;26.10;99.90
22212;DHT22;11275;52.488;13.462;2022-08-25T11:29:30;26.10;99.90
22212;DHT22;11275;52.488;13.462;2022-08-25T11:32:00;26.10;99.90
22212;DHT22;11275;52.488;13.462;2022-08-25T11:34:29;26.10;99.90
22212;DHT22;11275;52.488;13.462;2022-08-25T11:36:58;26.20;99.90
22212;DHT22;11275;52.488;13.462;2022-08-25T11:40:09;26.10;99.90
22212;DHT22;11275;52.488;13.462;2022-08-25T11:43:00;26.20;99.90
22212;DHT22;11275;52.488;13.462;2022-08-25T11:45:56;26.20;99.90
22212;DHT22;11275;52.488;13.462;2022-08-25T11:48:49;26.30;99.90
22212;DHT22;11275;52.488;13.462;2022-08-25T11:51:24;26.50;99.90
22212;DHT22;11275;52.488;13.462;2022-08-25T11:54:05;26.60;99.90
22212;DHT22;11275;52.488;13.462;2022-08-25T11:56:35;26.70;99.90
22212;DHT22;11275;52.488;13.462;2022-08-25T11:59:02;26.70;99.90
22212;DHT22;11275;52.488;13.462;2022-08-25T12:04:14;26.70;99.90
22212;DHT22;11275;52.488;13.462;2022-08-25T12:17:38;26.60;99.90
22212;DHT22;11275;52.488;13.462;2022-08-25T12:20:04;26.50;99.90
22212;DHT22;11275;52.488;13.462;2022-08-25T12:25:04;26.40;99.90
22212;DHT22;11275;52.488;13.462;2022-08-25T12:30:22;26.60;99.90
22212;DHT22;11275;52.488;13.462;2022-08-25T12:38:44;26.90;99.90
22212;DHT22;11275;52.488;13.462;2022-08-25T12:43:43;27.10;99.90
22212;DHT22;11275;52.488;13.462;2022-08-25T12:51:47;27.10;99.90
22212;DHT22;11275;52.488;13.462;2022-08-25T12:54:38;27.20;99.90
22212;DHT22;11275;52.488;13.462;2022-08-25T12:57:45;27.20;99.90
22212;DHT22;11275;52.488;13.462;2022-08-25T13:00:25;26.90;99.90
22212;DHT22;11275;52.488;13.462;2022-08-25T13:14:24;26.80;99.90
22212;DHT22;11275;52.488;13.462;2022-08-25T13:16:57;26.90;99.90
22212;DHT22;11275;52.488;13.462;2022-08-25T13:19:24;27.20;99.90
22212;DHT22;11275;52.488;13.462;2022-08-25T13:21:51;27.40;99.90
22212;DHT22;11275;52.488;13.462;2022-08-25T13:26:47;27.60;99.90
22212;DHT22;11275;52.488;13.462;2022-08-25T13:29:26;27.80;99.90
22212;DHT22;11275;52.488;13.462;2022-08-25T13:31:58;27.90;99.90
22212;DHT22;11275;52.488;13.462;2022-08-25T13:34:29;27.90;99.90
22212;DHT22;11275;52.488;13.462;2022-08-25T13:37:15;28.00;99.90
22212;DHT22;11275;52.488;13.462;2022-08-25T13:40:20;28.10;99.90
22212;DHT22;11275;52.488;13.462;2022-08-25T13:42:52;28.10;99.90
22212;DHT22;11275;52.488;13.462;2022-08-25T13:45:25;27.90;99.90
22212;DHT22;11275;52.488;13.462;2022-08-25T13:47:52;27.80;99.90
22212;DHT22;11275;52.488;13.462;2022-08-25T13:50:26;27.70;99.90
22212;DHT22;11275;52.488;13.462;2022-08-25T13:53:20;27.60;99.90
22212;DHT22;11275;52.488;13.462;2022-08-25T13:55:53;27.60;99.90
22212;DHT22;11275;52.488;13.462;2022-08-25T14:06:47;27.60;99.90
22212;DHT22;11275;52.488;13.462;2022-08-25T14:09:17;27.80;99.90
22212;DHT22;11275;52.488;13.462;2022-08-25T14:11:45;27.90;99.90
22212;DHT22;11275;52.488;13.462;2022-08-25T14:14:29;28.10;99.90
22212;DHT22;11275;52.488;13.462;2022-08-25T14:17:07;28.20;99.90
22212;DHT22;11275;52.488;13.462;2022-08-25T14:19:34;28.20;99.90
22212;DHT22;11275;52.488;13.462;2022-08-25T14:22:01;28.30;99.90
22212;DHT22;11275;52.488;13.462;2022-08-25T14:24:33;28.40;99.90
22212;DHT22;11275;52.488;13.462;2022-08-25T14:27:00;28.40;99.90
22212;DHT22;11275;52.488;13.462;2022-08-25T14:29:26;28.40;99.90
22212;DHT22;11275;52.488;13.462;2022-08-25T14:31:52;28.40;99.90
22212;DHT22;11275;52.488;13.462;2022-08-25T14:34:26;28.40;99.90
22212;DHT22;11275;52.488;13.462;2022-08-25T14:36:53;28.50;99.90
22212;DHT22;11275;52.488;13.462;2022-08-25T14:39:19;28.50;99.90
22212;DHT22;11275;52.488;13.462;2022-08-25T14:41:45;28.60;99.90
22212;DHT22;11275;52.488;13.462;2022-08-25T14:44:12;28.70;99.90
22212;DHT22;11275;52.488;13.462;2022-08-25T14:46:43;28.70;99.90
22212;DHT22;11275;52.488;13.462;2022-08-25T14:49:11;28.60;99.90
22212;DHT22;11275;52.488;13.462;2022-08-25T14:51:40;28.60;99.90
22212;DHT22;11275;52.488;13.462;2022-08-25T14:54:10;28.60;99.90
22212;DHT22;11275;52.488;13.462;2022-08-25T14:56:37;28.60;99.90
22212;DHT22;11275;52.488;13.462;2022-08-25T14:59:03;28.70;99.90
22212;DHT22;11275;52.488;13.462;2022-08-25T15:01:29;28.80;99.90
22212;DHT22;11275;52.488;13.462;2022-08-25T15:03:58;28.90;99.90
22212;DHT22;11275;52.488;13.462;2022-08-25T15:06:25;29.10;99.90
22212;DHT22;11275;52.488;13.462;2022-08-25T15:08:51;29.10;99.90
22212;DHT22;11275;52.488;13.462;2022-08-25T15:11:46;29.20;99.90
22212;DHT22;11275;52.488;13.462;2022-08-25T15:14:15;29.20;99.90
22212;DHT22;11275;52.488;13.462;2022-08-25T15:17:01;29.10;99.90
22212;DHT22;11275;52.488;13.462;2022-08-25T15:19:27;29.00;99.90
22212;DHT22;11275;52.488;13.462;2022-08-25T15:21:53;28.90;99.90
22212;DHT22;11275;52.488;13.462;2022-08-25T15:24:20;28.80;99.90
22212;DHT22;11275;52.488;13.462;2022-08-25T15:27:01;28.60;99.90
22212;DHT22;11275;52.488;13.462;2022-08-25T15:29:30;28.70;99.90
22212;DHT22;11275;52.488;13.462;2022-08-25T15:31:57;28.90;99.90
22212;DHT22;11275;52.488;13.462;2022-08-25T15:34:23;29.00;99.90
22212;DHT22;11275;52.488;13.462;2022-08-25T15:36:49;29.10;99.90
22212;DHT22;11275;52.488;13.462;2022-08-25T15:39:15;29.10;99.90
22212;DHT22;11275;52.488;13.462;2022-08-25T15:41:40;29.20;99.90
22212;DHT22;11275;52.488;13.462;2022-08-25T15:44:07;29.20;99.90
22212;DHT22;11275;52.488;13.462;2022-08-25T15:46:35;29.10;99.90
22212;DHT22;11275;52.488;13.462;2022-08-25T15:49:02;29.10;99.90
22212;DHT22;11275;52.488;13.462;2022-08-25T15:51:28;29.00;99.90
22212;DHT22;11275;52.488;13.462;2022-08-25T15:53:55;28.90;99.90
22212;DHT22;11275;52.488;13.462;2022-08-25T15:56:22;28.90;99.90
22212;DHT22;11275;52.488;13.462;2022-08-25T15:58:48;28.90;99.90
22212;DHT22;11275;52.488;13.462;2022-08-25T16:01:17;28.90;99.90
22212;DHT22;11275;52.488;13.462;2022-08-25T16:03:43;29.00;99.90
22212;DHT22;11275;52.488;13.462;2022-08-25T16:06:09;28.90;99.90
22212;DHT22;11275;52.488;13.462;2022-08-25T16:08:37;28.80;99.90
22212;DHT22;11275;52.488;13.462;2022-08-25T16:11:04;28.80;99.90
22212;DHT22;11275;52.488;13.462;2022-08-25T16:13:31;28.70;99.90
22212;DHT22;11275;52.488;13.462;2022-08-25T16:15:57;28.70;99.90
22212;DHT22;11275;52.488;13.462;2022-08-25T16:18:24;28.70;99.90
22212;DHT22;11275;52.488;13.462;2022-08-25T16:20:50;28.60;99.90
22212;DHT22;11275;52.488;13.462;2022-08-25T16:23:17;28.70;99.90
22212;DHT22;11275;52.488;13.462;2022-08-25T16:25:44;28.60;99.90
22212;DHT22;11275;52.488;13.462;2022-08-25T16:28:11;28.50;99.90
22212;DHT22;11275;52.488;13.462;2022-08-25T16:30:38;28.50;99.90
22212;DHT22;11275;52.488;13.462;2022-08-25T16:33:05;28.40;99.90
22212;DHT22;11275;52.488;13.462;2022-08-25T16:35:32;28.20;99.90
22212;DHT22;11275;52.488;13.462;2022-08-25T16:37:57;28.20;99.90
22212;DHT22;11275;52.488;13.462;2022-08-25T16:40:23;28.10;99.90
22212;DHT22;11275;52.488;13.462;2022-08-25T16:42:51;28.00;99.90
22212;DHT22;11275;52.488;13.462;2022-08-25T16:45:18;28.00;99.90
22212;DHT22;11275;52.488;13.462;2022-08-25T16:47:44;28.00;99.90
22212;DHT22;11275;52.488;13.462;2022-08-25T16:50:10;27.90;99.90
22212;DHT22;11275;52.488;13.462;2022-08-25T16:52:36;27.80;99.90
22212;DHT22;11275;52.488;13.462;2022-08-25T16:55:21;27.80;99.90
22212;DHT22;11275;52.488;13.462;2022-08-25T16:57:49;27.80;99.90
22212;DHT22;11275;52.488;13.462;2022-08-25T17:00:20;27.80;99.90
22212;DHT22;11275;52.488;13.462;2022-08-25T17:02:47;27.80;99.90
22212;DHT22;11275;52.488;13.462;2022-08-25T17:05:13;27.80;99.90
22212;DHT22;11275;52.488;13.462;2022-08-25T17:07:39;27.80;99.90
22212;DHT22;11275;52.488;13.462;2022-08-25T17:10:05;27.80;99.90
22212;DHT22;11275;52.488;13.462;2022-08-25T17:12:31;27.70;99.90
22212;DHT22;11275;52.488;13.462;2022-08-25T17:14:57;27.70;99.90
22212;DHT22;11275;52.488;13.462;2022-08-25T17:17:23;27.80;99.90